createdAt,value
2022-08-16T00:02:12.936Z,20.68
2022-08-16T00:04:53.480Z,20.71
2022-08-16T00:07:34.109Z,20.70
2022-08-16T00:10:20.967Z,20.72
2022-08-16T00:13:07.872Z,20.72
2022-08-16T00:15:51.353Z,20.74
2022-08-16T00:18:32.890Z,20.77
2022-08-16T00:21:14.324Z,20.81
2022-08-16T00:23:53.760Z,20.80
2022-08-16T00:26:38.783Z,20.80
2022-08-16T00:29:24.851Z,20.81
2022-08-16T00:32:11.031Z,20.81
2022-08-16T00:34:52.865Z,20.84
2022-08-16T00:37:58.612Z,20.85
2022-08-16T00:40:43.616Z,20.85
2022-08-16T00:43:43.228Z,20.83
2022-08-16T00:46:33.904Z,20.84
2022-08-16T00:49:17.570Z,20.82
2022-08-16T00:52:01.810Z,20.81
2022-08-16T00:54:41.348Z,20.85
2022-08-16T00:57:24.015Z,20.79
2022-08-16T01:00:06.592Z,20.76
2022-08-16T01:02:49.071Z,20.76
2022-08-16T01:05:28.011Z,20.73
2022-08-16T01:08:35.035Z,20.73
2022-08-16T01:11:14.356Z,20.69
2022-08-16T01:13:59.495Z,20.67
2022-08-16T01:16:52.785Z,20.65
2022-08-16T01:19:35.876Z,20.55
2022-08-16T01:22:47.487Z,20.52
2022-08-16T01:25:36.345Z,20.65
2022-08-16T01:28:20.226Z,20.65
2022-08-16T01:31:00.615Z,20.57
2022-08-16T01:33:44.606Z,20.51
2022-08-16T01:36:26.684Z,20.37
2022-08-16T01:39:14.653Z,20.35
2022-08-16T01:41:55.344Z,20.35
2022-08-16T01:44:37.777Z,20.35
2022-08-16T01:47:18.521Z,20.32
2022-08-16T01:50:41.867Z,20.34
2022-08-16T01:52:58.553Z,20.33
2022-08-16T01:55:53.797Z,20.30
2022-08-16T01:58:34.280Z,20.31
2022-08-16T02:01:18.867Z,20.30
2022-08-16T02:04:11.177Z,20.27
2022-08-16T02:06:54.538Z,20.25
2022-08-16T02:09:35.107Z,20.20
2022-08-16T02:12:45.863Z,20.20
2022-08-16T02:15:25.546Z,20.15
2022-08-16T02:18:07.415Z,20.11
2022-08-16T02:20:53.524Z,20.09
2022-08-16T02:23:35.759Z,20.09
2022-08-16T02:26:35.452Z,20.06
2022-08-16T02:29:14.079Z,20.04
2022-08-16T02:32:03.717Z,20.06
2022-08-16T02:34:56.951Z,20.04
2022-08-16T02:37:51.721Z,20.06
2022-08-16T02:40:35.817Z,20.08
2022-08-16T02:43:16.572Z,20.06
2022-08-16T02:45:55.132Z,20.01
2022-08-16T02:48:34.885Z,20.02
2022-08-16T02:51:29.959Z,19.99
2022-08-16T02:54:13.693Z,19.98
2022-08-16T02:56:57.451Z,19.95
2022-08-16T02:59:39.849Z,19.84
2022-08-16T03:02:32.073Z,19.86
2022-08-16T03:05:15.487Z,19.86
2022-08-16T03:07:55.336Z,19.84
2022-08-16T03:10:34.304Z,19.81
2022-08-16T03:13:17.400Z,19.81
2022-08-16T03:16:00.043Z,19.77
2022-08-16T03:18:40.215Z,19.72
2022-08-16T03:21:24.004Z,19.70
2022-08-16T03:24:04.245Z,19.66
2022-08-16T03:26:42.603Z,19.62
2022-08-16T03:29:23.367Z,19.56
2022-08-16T03:32:07.288Z,19.47
2022-08-16T03:34:49.826Z,19.47
2022-08-16T03:37:30.979Z,19.45
2022-08-16T03:40:51.251Z,19.43
2022-08-16T03:43:51.380Z,19.47
2022-08-16T03:46:44.880Z,19.50
2022-08-16T03:49:37.197Z,19.52
2022-08-16T03:52:20.107Z,19.53
2022-08-16T03:55:00.917Z,19.49
2022-08-16T03:57:42.320Z,19.49
2022-08-16T04:00:40.328Z,19.44
2022-08-16T04:03:24.819Z,19.39
2022-08-16T04:06:07.571Z,19.47
2022-08-16T04:08:50.530Z,19.48
2022-08-16T04:11:36.949Z,19.51
2022-08-16T04:14:33.422Z,19.49
2022-08-16T04:17:16.322Z,19.50
2022-08-16T04:20:00.629Z,19.55
2022-08-16T04:22:43.615Z,19.59
2022-08-16T04:25:24.516Z,19.64
2022-08-16T04:28:51.710Z,19.55
2022-08-16T04:31:10.593Z,19.66
2022-08-16T04:33:59.223Z,19.72
2022-08-16T04:36:38.737Z,19.75
2022-08-16T04:39:23.840Z,19.81
2022-08-16T04:42:11.267Z,19.86
2022-08-16T04:44:53.867Z,19.90
2022-08-16T04:47:37.905Z,19.96
2022-08-16T04:50:30.322Z,20.05
2022-08-16T04:53:15.685Z,20.10
2022-08-16T04:55:57.449Z,20.14
2022-08-16T04:58:45.738Z,20.17
2022-08-16T05:01:58.208Z,20.20
2022-08-16T05:04:34.174Z,20.16
2022-08-16T05:07:21.724Z,20.07
2022-08-16T05:10:19.918Z,20.13
2022-08-16T05:13:03.640Z,20.15
2022-08-16T05:15:43.277Z,20.16
2022-08-16T05:18:27.520Z,20.18
2022-08-16T05:21:11.363Z,20.25
2022-08-16T05:24:00.172Z,20.26
2022-08-16T05:26:49.600Z,20.22
2022-08-16T05:30:00.678Z,20.25
2022-08-16T05:32:53.665Z,20.33
2022-08-16T05:35:36.550Z,20.41
2022-08-16T05:38:33.039Z,20.51
2022-08-16T05:41:22.038Z,20.58
2022-08-16T05:44:05.315Z,20.64
2022-08-16T05:47:02.848Z,20.72
2022-08-16T05:49:44.300Z,20.83
2022-08-16T05:52:30.428Z,20.90
2022-08-16T05:55:12.520Z,20.97
2022-08-16T05:57:53.240Z,21.07
2022-08-16T06:00:34.888Z,21.16
2022-08-16T06:03:14.451Z,21.25
2022-08-16T06:06:28.095Z,21.38
2022-08-16T06:09:09.397Z,21.43
2022-08-16T06:11:51.245Z,21.52
2022-08-16T06:14:32.257Z,21.70
2022-08-16T06:17:11.870Z,21.80
2022-08-16T06:19:54.862Z,21.90
2022-08-16T06:22:38.895Z,21.98
2022-08-16T06:25:18.368Z,22.09
2022-08-16T06:28:36.476Z,22.15
2022-08-16T06:31:24.924Z,22.28
2022-08-16T06:34:56.192Z,22.38
2022-08-16T06:37:24.296Z,22.45
2022-08-16T06:40:21.410Z,22.63
2022-08-16T06:43:13.915Z,22.68
2022-08-16T06:46:00.707Z,22.72
2022-08-16T06:48:48.350Z,22.80
2022-08-16T06:51:45.884Z,22.91
2022-08-16T06:54:34.210Z,22.90
2022-08-16T06:57:16.765Z,23.03
2022-08-16T06:59:59.473Z,23.24
2022-08-16T07:02:54.275Z,23.21
2022-08-16T07:05:41.344Z,23.51
2022-08-16T07:08:29.688Z,23.56
2022-08-16T07:11:12.002Z,23.69
2022-08-16T07:14:00.727Z,23.86
2022-08-16T07:17:03.189Z,23.80
2022-08-16T07:20:02.686Z,24.00
2022-08-16T07:22:59.186Z,24.28
2022-08-16T07:25:52.842Z,24.53
2022-08-16T07:28:32.669Z,24.69
2022-08-16T07:31:14.332Z,24.86
2022-08-16T07:33:58.888Z,25.06
2022-08-16T07:36:42.088Z,25.24
2022-08-16T07:39:28.405Z,25.54
2022-08-16T07:42:25.791Z,25.65
2022-08-16T07:45:10.126Z,25.93
2022-08-16T07:47:54.452Z,26.16
2022-08-16T07:50:56.661Z,26.41
2022-08-16T07:53:43.898Z,26.81
2022-08-16T07:56:33.877Z,27.23
2022-08-16T07:59:15.201Z,26.99
2022-08-16T08:01:56.415Z,27.41
2022-08-16T08:04:39.591Z,27.31
2022-08-16T08:07:33.472Z,27.58
2022-08-16T08:10:29.523Z,27.76
2022-08-16T08:13:10.125Z,28.06
2022-08-16T08:15:53.505Z,28.44
2022-08-16T08:18:34.405Z,28.52
2022-08-16T08:21:19.299Z,28.66
2022-08-16T08:24:09.381Z,29.00
2022-08-16T08:26:51.457Z,28.69
2022-08-16T08:29:46.314Z,28.67
2022-08-16T08:33:28.261Z,29.07
2022-08-16T08:36:11.432Z,28.94
2022-08-16T08:39:03.897Z,29.42
2022-08-16T08:41:55.147Z,29.35
2022-08-16T08:44:35.525Z,29.44
2022-08-16T08:47:17.743Z,29.99
2022-08-16T08:49:58.920Z,29.95
2022-08-16T08:52:40.743Z,30.14
2022-08-16T08:55:37.531Z,30.45
2022-08-16T08:58:19.080Z,29.56
2022-08-16T09:01:13.340Z,29.64
2022-08-16T09:04:17.674Z,30.04
2022-08-16T09:07:04.761Z,30.43
2022-08-16T09:09:46.355Z,30.51
2022-08-16T09:12:31.235Z,30.49
2022-08-16T09:15:24.023Z,30.66
2022-08-16T09:18:24.800Z,30.70
2022-08-16T09:21:09.339Z,31.24
2022-08-16T09:23:50.239Z,31.24
2022-08-16T09:26:45.562Z,31.40
2022-08-16T09:29:44.772Z,31.82
2022-08-16T09:32:30.710Z,32.31
2022-08-16T09:35:11.451Z,32.92
2022-08-16T09:38:00.795Z,33.24
2022-08-16T09:40:43.213Z,33.59
2022-08-16T09:43:53.497Z,33.65
2022-08-16T09:46:44.560Z,33.72
2022-08-16T09:49:36.922Z,33.56
2022-08-16T09:52:46.836Z,34.10
2022-08-16T09:55:31.297Z,33.68
2022-08-16T09:58:40.582Z,33.47
2022-08-16T10:01:16.591Z,33.80
2022-08-16T10:04:31.648Z,34.10
2022-08-16T10:07:15.177Z,34.09
2022-08-16T10:09:56.507Z,33.64
2022-08-16T10:12:56.912Z,34.07
2022-08-16T10:15:54.813Z,34.06
2022-08-16T10:19:00.988Z,33.90
2022-08-16T10:21:35.467Z,33.84
2022-08-16T10:24:13.867Z,34.06
2022-08-16T10:27:26.567Z,34.35
2022-08-16T10:30:30.236Z,34.98
2022-08-16T10:33:11.062Z,34.82
2022-08-16T10:35:53.911Z,34.85
2022-08-16T10:38:48.362Z,35.43
2022-08-16T10:41:37.879Z,35.70
2022-08-16T10:44:18.051Z,36.12
2022-08-16T10:47:12.859Z,35.65
2022-08-16T10:49:57.644Z,35.31
2022-08-16T10:55:40.952Z,35.61
2022-08-16T10:58:22.444Z,34.67
2022-08-16T11:01:43.085Z,34.94
2022-08-16T11:10:21.153Z,34.43
2022-08-16T11:16:01.175Z,34.02
2022-08-16T11:18:49.025Z,34.34
2022-08-16T11:25:12.714Z,34.76
2022-08-16T11:27:56.241Z,34.71
2022-08-16T11:30:39.310Z,35.05
2022-08-16T11:33:52.007Z,35.23
2022-08-16T11:36:25.156Z,35.26
2022-08-16T11:39:10.219Z,35.07
2022-08-16T11:41:51.565Z,35.23
2022-08-16T11:44:43.739Z,35.37
2022-08-16T11:47:35.416Z,35.40
2022-08-16T11:50:14.254Z,35.39
2022-08-16T11:52:54.772Z,35.42
2022-08-16T11:55:35.470Z,35.26
2022-08-16T11:58:18.070Z,35.58
2022-08-16T12:00:59.751Z,35.36
2022-08-16T12:03:43.497Z,35.02
2022-08-16T12:06:30.845Z,34.76
2022-08-16T12:09:14.406Z,34.75
2022-08-16T12:11:56.772Z,34.06
2022-08-16T12:14:37.518Z,34.32
2022-08-16T12:17:18.803Z,33.77
2022-08-16T12:19:57.694Z,33.78
2022-08-16T12:22:38.847Z,33.84
2022-08-16T12:25:22.365Z,33.24
2022-08-16T12:28:03.512Z,33.86
2022-08-16T12:30:45.752Z,34.06
2022-08-16T12:33:26.348Z,34.25
2022-08-16T12:36:12.943Z,34.62
2022-08-16T12:39:05.590Z,34.77
2022-08-16T12:41:48.072Z,35.10
2022-08-16T12:44:31.339Z,35.13
2022-08-16T12:48:09.934Z,35.28
2022-08-16T12:50:58.063Z,35.20
2022-08-16T12:53:42.245Z,34.82
2022-08-16T12:56:25.223Z,34.93
2022-08-16T12:59:11.615Z,35.55
2022-08-16T13:01:58.185Z,35.76
2022-08-16T13:04:38.636Z,35.80
2022-08-16T13:07:19.151Z,35.48
2022-08-16T13:10:21.510Z,35.33
2022-08-16T13:13:16.787Z,34.74
2022-08-16T13:16:02.210Z,34.75
2022-08-16T13:18:44.740Z,34.63
2022-08-16T13:21:33.865Z,35.05
2022-08-16T13:24:15.255Z,35.46
2022-08-16T13:26:56.206Z,35.64
2022-08-16T13:29:40.088Z,35.31
2022-08-16T13:32:39.650Z,35.65
2022-08-16T13:35:19.774Z,35.86
2022-08-16T13:37:59.550Z,35.75
2022-08-16T13:40:39.364Z,35.63
2022-08-16T13:43:22.889Z,35.47
2022-08-16T13:46:04.974Z,35.41
2022-08-16T13:48:46.283Z,35.26
2022-08-16T13:51:29.204Z,34.58
2022-08-16T13:54:11.179Z,34.24
2022-08-16T13:56:51.076Z,34.47
2022-08-16T13:59:30.819Z,34.43
2022-08-16T14:02:15.217Z,34.59
2022-08-16T14:05:02.952Z,34.49
2022-08-16T14:07:46.176Z,34.54
2022-08-16T14:10:32.604Z,34.18
2022-08-16T14:13:21.104Z,33.88
2022-08-16T14:16:01.629Z,33.89
2022-08-16T14:18:42.428Z,33.87
2022-08-16T14:21:27.872Z,33.73
2022-08-16T14:24:30.234Z,33.53
2022-08-16T14:27:12.129Z,33.34
2022-08-16T14:29:53.400Z,33.09
2022-08-16T14:32:36.395Z,32.96
2022-08-16T14:35:36.791Z,32.67
2022-08-16T14:38:24.337Z,32.33
2022-08-16T14:41:10.365Z,32.22
2022-08-16T14:43:50.223Z,32.08
2022-08-16T14:46:31.974Z,32.05
2022-08-16T14:49:12.063Z,32.12
2022-08-16T14:51:53.674Z,32.01
2022-08-16T14:54:34.205Z,31.85
2022-08-16T14:57:14.737Z,31.77
2022-08-16T14:59:55.317Z,31.80
2022-08-16T15:02:36.897Z,31.47
2022-08-16T15:05:16.711Z,31.48
2022-08-16T15:07:56.610Z,31.32
2022-08-16T15:10:38.998Z,31.20
2022-08-16T15:13:21.400Z,31.25
2022-08-16T15:16:04.178Z,31.25
2022-08-16T15:18:46.610Z,31.15
2022-08-16T15:21:27.190Z,31.22
2022-08-16T15:24:16.760Z,31.18
2022-08-16T15:27:04.441Z,31.15
2022-08-16T15:29:46.660Z,31.10
2022-08-16T15:32:34.091Z,31.11
2022-08-16T15:35:15.517Z,30.93
2022-08-16T15:37:58.705Z,30.90
2022-08-16T15:40:57.741Z,30.73
2022-08-16T15:43:40.326Z,30.70
2022-08-16T15:46:35.521Z,30.66
2022-08-16T15:49:34.652Z,30.59
2022-08-16T15:52:24.944Z,30.54
2022-08-16T15:55:24.012Z,30.38
2022-08-16T15:58:35.201Z,30.38
2022-08-16T16:01:18.645Z,30.31
2022-08-16T16:03:59.863Z,30.33
2022-08-16T16:06:40.424Z,30.29
2022-08-16T16:09:20.493Z,30.21
2022-08-16T16:12:50.341Z,30.14
2022-08-16T16:15:20.112Z,30.10
2022-08-16T16:18:09.963Z,30.03
2022-08-16T16:20:55.372Z,29.89
2022-08-16T16:23:41.085Z,29.88
2022-08-16T16:26:24.845Z,29.77
2022-08-16T16:29:14.604Z,29.75
2022-08-16T16:31:59.404Z,29.70
2022-08-16T16:34:43.094Z,29.61
2022-08-16T16:37:22.181Z,29.58
2022-08-16T16:40:23.812Z,29.54
2022-08-16T16:43:16.701Z,29.56
2022-08-16T16:45:56.793Z,29.51
2022-08-16T16:48:36.529Z,29.47
2022-08-16T16:51:16.676Z,29.44
2022-08-16T16:54:02.307Z,29.41
2022-08-16T16:56:54.804Z,29.39
2022-08-16T16:59:35.549Z,29.33
2022-08-16T17:02:41.033Z,29.33
2022-08-16T17:05:17.909Z,29.31
2022-08-16T17:08:00.492Z,29.25
2022-08-16T17:10:46.663Z,29.23
2022-08-16T17:13:32.436Z,29.17
2022-08-16T17:16:18.807Z,29.13
2022-08-16T17:19:15.269Z,29.09
2022-08-16T17:21:57.979Z,29.05
2022-08-16T17:24:39.286Z,29.01
2022-08-16T17:27:32.111Z,28.88
2022-08-16T17:30:17.830Z,28.87
2022-08-16T17:33:00.541Z,28.82
2022-08-16T17:35:55.245Z,28.71
2022-08-16T17:38:43.991Z,28.63
2022-08-16T17:41:26.442Z,28.55
2022-08-16T17:44:08.591Z,28.50
2022-08-16T17:46:52.279Z,28.38
2022-08-16T17:49:32.479Z,28.33
2022-08-16T17:52:12.931Z,28.25
2022-08-16T17:54:53.545Z,28.14
2022-08-16T17:57:31.849Z,28.02
2022-08-16T18:00:18.308Z,27.93
2022-08-16T18:03:02.401Z,27.82
2022-08-16T18:05:44.319Z,27.75
2022-08-16T18:08:25.707Z,27.67
2022-08-16T18:11:13.236Z,27.58
2022-08-16T18:13:52.943Z,27.48
2022-08-16T18:16:47.905Z,27.37
2022-08-16T18:19:27.431Z,27.29
2022-08-16T18:22:19.428Z,27.19
2022-08-16T18:24:59.882Z,27.06
2022-08-16T18:27:38.565Z,26.95
2022-08-16T18:30:17.956Z,26.86
2022-08-16T18:32:57.671Z,26.75
2022-08-16T18:35:38.675Z,26.65
2022-08-16T18:38:20.884Z,26.53
2022-08-16T18:40:59.070Z,26.40
2022-08-16T18:44:23.911Z,26.31
2022-08-16T18:46:39.572Z,26.22
2022-08-16T18:49:19.807Z,26.13
2022-08-16T18:52:00.889Z,26.05
2022-08-16T18:55:02.733Z,25.95
2022-08-16T18:57:39.038Z,25.80
2022-08-16T19:00:22.367Z,25.70
2022-08-16T19:03:09.146Z,25.57
2022-08-16T19:05:52.341Z,25.47
2022-08-16T19:08:34.658Z,25.40
2022-08-16T19:11:18.869Z,25.32
2022-08-16T19:14:00.714Z,25.25
2022-08-16T19:16:40.191Z,25.17
2022-08-16T19:19:22.867Z,25.01
2022-08-16T19:22:06.613Z,24.90
2022-08-16T19:24:49.041Z,24.80
2022-08-16T19:27:33.652Z,24.69
2022-08-16T19:30:14.578Z,24.63
2022-08-16T19:32:54.981Z,24.54
2022-08-16T19:35:34.884Z,24.45
2022-08-16T19:38:13.389Z,24.40
2022-08-16T19:40:54.860Z,24.31
2022-08-16T19:44:19.839Z,24.22
2022-08-16T19:47:01.478Z,24.15
2022-08-16T19:49:39.626Z,24.04
2022-08-16T19:52:20.705Z,23.98
2022-08-16T19:55:03.265Z,23.91
2022-08-16T19:57:45.294Z,23.87
2022-08-16T20:00:35.261Z,23.79
2022-08-16T20:03:18.533Z,23.72
2022-08-16T20:05:59.238Z,23.68
2022-08-16T20:08:40.629Z,23.57
2022-08-16T20:11:20.122Z,23.55
2022-08-16T20:14:00.170Z,23.48
2022-08-16T20:16:42.305Z,23.42
2022-08-16T20:19:25.218Z,23.35
2022-08-16T20:22:09.080Z,23.30
2022-08-16T20:25:02.036Z,23.26
2022-08-16T20:27:42.428Z,23.19
2022-08-16T20:30:22.889Z,23.14
2022-08-16T20:33:04.732Z,23.11
2022-08-16T20:35:45.346Z,23.04
2022-08-16T20:38:25.994Z,23.00
2022-08-16T20:41:05.898Z,22.93
2022-08-16T20:43:48.352Z,22.86
2022-08-16T20:46:43.158Z,22.80
2022-08-16T20:49:23.314Z,22.76
2022-08-16T20:52:03.616Z,22.73
2022-08-16T20:54:45.989Z,22.68
2022-08-16T20:57:26.007Z,22.62
2022-08-16T21:00:08.464Z,22.58
2022-08-16T21:02:49.393Z,22.54
2022-08-16T21:05:31.874Z,22.48
2022-08-16T21:08:50.143Z,22.45
2022-08-16T21:11:12.265Z,22.40
2022-08-16T21:13:55.352Z,22.36
2022-08-16T21:16:40.196Z,22.31
2022-08-16T21:19:20.045Z,22.28
2022-08-16T21:21:58.281Z,22.25
2022-08-16T21:24:36.420Z,22.22
2022-08-16T21:27:17.385Z,22.17
2022-08-16T21:30:08.737Z,22.14
2022-08-16T21:32:52.113Z,22.13
2022-08-16T21:35:33.679Z,22.08
2022-08-16T21:38:29.235Z,22.05
2022-08-16T21:41:12.721Z,22.00
2022-08-16T21:43:53.462Z,21.97
2022-08-16T21:46:33.827Z,21.93
2022-08-16T21:49:16.572Z,21.92
2022-08-16T21:51:55.935Z,21.85
2022-08-16T21:54:46.510Z,21.84
2022-08-16T21:57:36.308Z,21.81
2022-08-16T22:00:17.333Z,21.75
2022-08-16T22:02:59.388Z,21.70
2022-08-16T22:05:40.631Z,21.66
2022-08-16T22:08:21.055Z,21.62
2022-08-16T22:11:08.336Z,21.59
2022-08-16T22:13:51.512Z,21.55
2022-08-16T22:16:41.694Z,21.37
2022-08-16T22:19:24.236Z,21.40
2022-08-16T22:22:05.936Z,21.39
2022-08-16T22:24:46.590Z,21.36
2022-08-16T22:27:26.392Z,21.32
2022-08-16T22:30:07.616Z,21.27
2022-08-16T22:32:48.115Z,21.22
2022-08-16T22:35:27.620Z,21.19
2022-08-16T22:38:54.610Z,21.13
2022-08-16T22:41:06.983Z,21.10
2022-08-16T22:43:49.764Z,21.02
2022-08-16T22:46:29.167Z,21.00
2022-08-16T22:49:09.403Z,21.02
2022-08-16T22:51:48.848Z,21.00
2022-08-16T22:54:44.178Z,20.97
2022-08-16T22:57:29.188Z,20.93
2022-08-16T23:00:11.691Z,20.88
2022-08-16T23:02:58.673Z,20.86
2022-08-16T23:05:40.280Z,20.84
2022-08-16T23:08:38.221Z,20.78
2022-08-16T23:11:22.577Z,20.77
2022-08-16T23:14:05.179Z,20.75
2022-08-16T23:16:47.150Z,20.74
2022-08-16T23:19:27.561Z,20.72
2022-08-16T23:22:08.207Z,20.69
2022-08-16T23:24:56.561Z,20.67
2022-08-16T23:27:36.922Z,20.59
2022-08-16T23:30:18.926Z,20.57
2022-08-16T23:33:32.204Z,20.57
2022-08-16T23:36:12.303Z,20.54
2022-08-16T23:38:51.901Z,20.52
2022-08-16T23:41:34.839Z,20.49
2022-08-16T23:44:56.584Z,20.47
2022-08-16T23:47:15.104Z,20.41
2022-08-16T23:50:00.800Z,20.37
2022-08-16T23:52:59.441Z,20.36
2022-08-16T23:55:45.041Z,20.28
2022-08-16T23:58:26.852Z,20.25
